Time;durP1;ratioP1;P1;durP2;ratioP2;P2;SDS_P1;SDS_P2;PMS_P1;PMS_P2;Temp;Humidity;BMP_temperature;BMP_pressure;BME280_temperature;BME280_humidity;BME280_pressure;Samples;Min_cycle;Max_cycle;Signal;HPM_P1;HPM_P2
2021/03/26 00:01:49;;;;;;;22.50;14.67;;;8.50;79.40;;;;;;5048744;28;20262;-56
2021/03/26 00:04:18;;;;;;;23.57;14.73;;;8.50;80.30;;;;;;5043069;28;20241;-56
2021/03/26 00:06:47;;;;;;;19.83;14.47;;;8.40;80.20;;;;;;5051035;28;20216;-56
2021/03/26 00:09:18;;;;;;;21.00;15.20;;;8.50;80.40;;;;;;5050947;28;20231;-57
2021/03/26 00:11:46;;;;;;;20.53;15.17;;;8.50;80.60;;;;;;5062890;28;20201;-58
2021/03/26 00:14:14;;;;;;;20.70;14.57;;;8.50;80.70;;;;;;5062992;28;20202;-58
2021/03/26 00:16:41;;;;;;;18.97;15.13;;;8.50;80.70;;;;;;5065954;28;20198;-58
2021/03/26 00:19:10;;;;;;;16.80;14.20;;;8.50;80.90;;;;;;5059626;28;20294;-57
2021/03/26 00:21:37;;;;;;;17.47;13.73;;;8.40;80.70;;;;;;5072030;28;20631;-59
2021/03/26 00:24:04;;;;;;;21.17;14.67;;;8.40;80.60;;;;;;5063301;28;20203;-59
2021/03/26 00:26:32;;;;;;;14.60;12.33;;;8.30;80.50;;;;;;5049637;28;20213;-58
2021/03/26 00:29:18;;;;;;;18.47;14.50;;;8.20;79.80;;;;;;5068802;28;20244;-58
2021/03/26 00:31:45;;;;;;;26.10;16.30;;;8.00;79.50;;;;;;5052498;28;20206;-56
2021/03/26 00:34:13;;;;;;;22.43;17.53;;;7.80;79.80;;;;;;5054713;28;20614;-56
2021/03/26 00:36:41;;;;;;;23.73;18.80;;;7.70;80.50;;;;;;5070921;28;20255;-58
2021/03/26 00:39:09;;;;;;;27.87;20.17;;;7.70;81.10;;;;;;5064977;28;20546;-58
2021/03/26 00:41:36;;;;;;;26.53;20.10;;;7.60;81.40;;;;;;5068204;28;20300;-58
2021/03/26 00:44:04;;;;;;;35.30;23.20;;;7.60;81.50;;;;;;5053489;28;20631;-58
2021/03/26 00:46:34;;;;;;;31.33;24.10;;;7.50;81.30;;;;;;5072795;28;20601;-59
2021/03/26 00:49:02;;;;;;;36.03;24.97;;;7.40;81.60;;;;;;5064463;28;20225;-58
2021/03/26 00:51:29;;;;;;;34.07;23.80;;;7.40;82.00;;;;;;5067305;28;20204;-58
2021/03/26 00:53:57;;;;;;;28.47;21.33;;;7.40;82.30;;;;;;5070570;28;20202;-58
2021/03/26 00:56:24;;;;;;;32.07;21.43;;;7.40;82.50;;;;;;5064439;28;20225;-58
2021/03/26 00:58:51;;;;;;;27.00;21.10;;;7.30;82.40;;;;;;5065959;28;20202;-58
2021/03/26 01:01:18;;;;;;;25.80;18.50;;;7.30;82.10;;;;;;5063198;28;20216;-58
2021/03/26 01:03:45;;;;;;;20.97;16.27;;;7.20;81.80;;;;;;5061214;28;20198;-58
2021/03/26 01:06:12;;;;;;;23.57;18.27;;;7.10;81.90;;;;;;5068792;28;20632;-58
2021/03/26 01:08:40;;;;;;;23.53;18.43;;;7.00;81.90;;;;;;5072406;28;20304;-58
2021/03/26 01:11:14;;;;;;;23.33;18.43;;;6.90;82.00;;;;;;5055710;28;20197;-58
2021/03/26 01:13:42;;;;;;;30.83;18.03;;;6.80;82.00;;;;;;5065115;28;20263;-58
2021/03/26 01:16:09;;;;;;;23.53;16.87;;;6.80;82.00;;;;;;5072505;28;20201;-58
2021/03/26 01:18:41;;;;;;;26.13;18.80;;;6.70;82.50;;;;;;5068001;28;20237;-58
2021/03/26 01:21:12;;;;;;;28.73;20.47;;;6.60;82.00;;;;;;5072391;28;20210;-58
2021/03/26 01:23:41;;;;;;;24.90;16.70;;;6.60;82.30;;;;;;5068401;28;20224;-58
2021/03/26 01:26:09;;;;;;;26.73;17.97;;;6.50;82.30;;;;;;5054632;28;20237;-58
2021/03/26 01:28:37;;;;;;;26.60;19.03;;;6.50;81.90;;;;;;5073746;28;20698;-58
2021/03/26 01:31:06;;;;;;;34.03;21.30;;;6.40;81.90;;;;;;5075611;28;20205;-58
2021/03/26 01:33:33;;;;;;;31.07;21.07;;;6.50;82.70;;;;;;5074729;28;20216;-58
2021/03/26 01:36:00;;;;;;;33.67;22.93;;;6.50;83.30;;;;;;5070555;28;20221;-58
2021/03/26 01:38:27;;;;;;;38.40;23.60;;;6.50;83.30;;;;;;5071693;28;20214;-59
2021/03/26 01:41:00;;;;;;;34.63;23.20;;;6.60;83.80;;;;;;5065272;28;20213;-58
2021/03/26 01:43:37;;;;;;;31.30;22.40;;;6.60;84.20;;;;;;5067156;28;20202;-58
2021/03/26 01:46:10;;;;;;;33.40;22.50;;;6.60;84.30;;;;;;5063487;28;20221;-58
2021/03/26 01:48:48;;;;;;;24.50;19.87;;;6.50;84.50;;;;;;5057302;28;20233;-58
2021/03/26 01:51:28;;;;;;;29.37;20.67;;;6.50;84.80;;;;;;5073418;28;20201;-58
2021/03/26 01:53:56;;;;;;;33.20;21.70;;;6.40;84.60;;;;;;5052951;28;20494;-58
2021/03/26 01:56:23;;;;;;;28.63;20.10;;;6.40;84.40;;;;;;5056315;28;20289;-59
2021/03/26 01:58:50;;;;;;;28.10;19.83;;;6.40;84.90;;;;;;5071181;28;20218;-58
2021/03/26 02:01:25;;;;;;;28.07;19.60;;;6.40;84.70;;;;;;5074037;28;20271;-58
2021/03/26 02:03:56;;;;;;;26.40;20.27;;;6.40;84.30;;;;;;5070406;28;20267;-58
2021/03/26 02:06:29;;;;;;;26.37;19.67;;;6.40;84.10;;;;;;5072416;28;20215;-58
2021/03/26 02:09:16;;;;;;;30.40;21.43;;;6.30;84.20;;;;;;5064706;28;20289;-58
2021/03/26 02:11:57;;;;;;;26.77;20.57;;;6.30;84.20;;;;;;5067728;28;20237;-58
2021/03/26 02:14:33;;;;;;;29.77;18.00;;;6.30;84.50;;;;;;5056986;28;20206;-58
2021/03/26 02:17:01;;;;;;;26.07;16.97;;;6.30;84.30;;;;;;5064656;28;20209;-58
2021/03/26 02:19:43;;;;;;;30.33;19.50;;;6.30;84.00;;;;;;5069765;28;20618;-58
2021/03/26 02:22:13;;;;;;;28.00;20.60;;;6.30;83.90;;;;;;5072147;28;20221;-58
2021/03/26 02:24:43;;;;;;;28.83;19.10;;;6.20;84.30;;;;;;5050155;28;20228;-58
2021/03/26 02:27:17;;;;;;;26.47;18.80;;;6.20;84.50;;;;;;5064745;28;20222;-58
2021/03/26 02:29:44;;;;;;;24.37;17.50;;;6.20;84.20;;;;;;5058744;28;20230;-58
2021/03/26 02:32:36;;;;;;;21.50;17.37;;;6.20;83.80;;;;;;5061462;28;20202;-58
2021/03/26 02:35:23;;;;;;;24.93;16.47;;;6.20;83.40;;;;;;5071107;28;20221;-58
2021/03/26 02:37:55;;;;;;;20.57;16.37;;;6.10;82.90;;;;;;5068075;28;20711;-57
2021/03/26 02:40:36;;;;;;;18.87;14.17;;;6.20;82.70;;;;;;5071903;28;20243;-58
2021/03/26 02:43:22;;;;;;;13.37;10.37;;;6.10;82.80;;;;;;5059817;28;20224;-58
2021/03/26 02:46:13;;;;;;;17.47;14.27;;;6.10;83.10;;;;;;5063092;28;20211;-59
2021/03/26 02:48:47;;;;;;;21.50;16.77;;;6.00;83.30;;;;;;5066864;28;20225;-58
2021/03/26 02:51:39;;;;;;;22.87;17.50;;;6.00;83.40;;;;;;5068641;28;20217;-58
2021/03/26 02:54:29;;;;;;;25.60;19.10;;;6.00;83.80;;;;;;5063024;28;20288;-58
2021/03/26 02:57:08;;;;;;;22.00;16.63;;;5.90;84.20;;;;;;5066215;28;20302;-58
2021/03/26 03:00:13;;;;;;;21.00;15.07;;;5.90;84.50;;;;;;5048676;28;20288;-58
2021/03/26 03:02:42;;;;;;;20.77;14.70;;;5.80;84.00;;;;;;4980862;28;20208;-58
2021/03/26 03:05:31;;;;;;;26.90;15.70;;;5.80;83.60;;;;;;5044888;28;20632;-58
2021/03/26 03:08:16;;;;;;;20.83;15.20;;;5.90;83.30;;;;;;5065792;28;20670;-58
2021/03/26 03:10:54;;;;;;;21.63;17.57;;;5.80;83.00;;;;;;5067793;28;20241;-58
2021/03/26 03:13:34;;;;;;;27.63;19.23;;;5.80;83.00;;;;;;5055008;28;20202;-58
2021/03/26 03:16:27;;;;;;;31.57;21.83;;;5.70;83.30;;;;;;5072978;28;20543;-58
2021/03/26 03:19:21;;;;;;;26.33;17.97;;;5.70;83.60;;;;;;5063539;28;20201;-58
2021/03/26 03:21:59;;;;;;;24.87;18.33;;;5.70;83.70;;;;;;5055057;28;20504;-58
2021/03/26 03:24:41;;;;;;;23.73;17.87;;;5.70;83.90;;;;;;5070701;28;20316;-58
2021/03/26 03:27:26;;;;;;;24.83;18.00;;;5.70;84.00;;;;;;5052047;28;20297;-58
2021/03/26 03:30:18;;;;;;;30.17;22.90;;;5.70;83.90;;;;;;5067209;28;20225;-58
2021/03/26 03:33:06;;;;;;;23.67;18.23;;;5.70;83.80;;;;;;5071675;28;20194;-58
2021/03/26 03:36:07;;;;;;;26.90;22.30;;;5.70;83.80;;;;;;5055892;28;20198;-58
2021/03/26 03:38:53;;;;;;;29.63;22.40;;;5.70;83.80;;;;;;5061581;28;20293;-58
2021/03/26 03:41:39;;;;;;;25.97;17.80;;;5.70;83.90;;;;;;5052788;28;20614;-58
2021/03/26 03:44:26;;;;;;;30.63;23.43;;;5.70;84.20;;;;;;5067322;28;20206;-58
2021/03/26 03:47:11;;;;;;;34.23;24.77;;;5.70;84.40;;;;;;5053094;28;20201;-58
2021/03/26 03:49:47;;;;;;;25.47;19.67;;;5.80;84.30;;;;;;5061792;28;20261;-58
2021/03/26 03:52:33;;;;;;;35.50;23.33;;;5.70;84.00;;;;;;5047537;28;20266;-58
2021/03/26 03:55:13;;;;;;;26.37;19.87;;;5.80;84.20;;;;;;5063479;28;20271;-58
2021/03/26 03:58:15;;;;;;;28.23;20.13;;;5.70;84.30;;;;;;5055019;28;20244;-57
2021/03/26 04:01:07;;;;;;;25.73;19.67;;;5.80;84.50;;;;;;5064690;28;20209;-58
2021/03/26 04:03:50;;;;;;;27.20;19.60;;;5.80;84.50;;;;;;5043081;28;20205;-58
2021/03/26 04:06:41;;;;;;;28.97;19.67;;;5.80;84.50;;;;;;5070954;28;20220;-58
2021/03/26 04:09:14;;;;;;;31.90;20.70;;;5.90;84.50;;;;;;5062735;28;20282;-58
2021/03/26 04:12:10;;;;;;;29.60;21.30;;;5.90;84.70;;;;;;5059415;28;20209;-58
2021/03/26 04:15:09;;;;;;;29.37;21.47;;;6.00;84.90;;;;;;5062417;28;20197;-58
2021/03/26 04:17:57;;;;;;;32.77;20.97;;;6.00;85.00;;;;;;5066481;28;20194;-58
2021/03/26 04:20:29;;;;;;;30.30;21.70;;;6.10;85.20;;;;;;5069859;28;20334;-58
2021/03/26 04:23:05;;;;;;;32.80;21.40;;;6.20;85.30;;;;;;5065787;28;20638;-58
2021/03/26 04:25:38;;;;;;;33.47;22.87;;;6.20;85.20;;;;;;5072306;28;20212;-58
2021/03/26 04:28:15;;;;;;;39.97;22.73;;;6.20;85.90;;;;;;5068861;28;20281;-58
2021/03/26 04:30:55;;;;;;;35.07;22.80;;;6.10;85.20;;;;;;5056573;28;20232;-58
2021/03/26 04:33:22;;;;;;;35.33;24.63;;;6.00;85.40;;;;;;5053884;28;20197;-58
2021/03/26 04:35:51;;;;;;;39.73;24.23;;;6.00;86.00;;;;;;5062111;28;20565;-58
2021/03/26 04:38:44;;;;;;;44.27;22.50;;;5.90;86.30;;;;;;5056226;28;20211;-58
2021/03/26 04:41:41;;;;;;;36.10;23.10;;;5.90;86.50;;;;;;5059382;28;20218;-58
2021/03/26 04:44:26;;;;;;;42.07;24.83;;;5.80;86.60;;;;;;5061946;28;20210;-58
2021/03/26 04:47:01;;;;;;;45.30;25.90;;;5.70;86.50;;;;;;5066609;28;20703;-58
2021/03/26 04:49:56;;;;;;;35.87;23.07;;;5.70;86.30;;;;;;5069570;28;20221;-59
2021/03/26 04:52:45;;;;;;;37.53;24.50;;;5.60;86.40;;;;;;5056562;28;20296;-58
2021/03/26 04:55:20;;;;;;;37.60;21.10;;;5.50;86.50;;;;;;5064418;28;20669;-58
2021/03/26 04:57:58;;;;;;;34.50;20.37;;;5.50;86.50;;;;;;5063331;28;20206;-58
2021/03/26 05:00:32;;;;;;;29.50;20.77;;;5.40;86.50;;;;;;5064015;28;20500;-58
2021/03/26 05:03:13;;;;;;;87.50;24.90;;;5.40;86.70;;;;;;5059892;28;20211;-58
2021/03/26 05:05:50;;;;;;;33.93;24.07;;;5.50;87.00;;;;;;5065795;28;20297;-58
2021/03/26 05:08:19;;;;;;;34.67;23.53;;;5.50;87.10;;;;;;5063767;28;20224;-58
2021/03/26 05:10:48;;;;;;;58.07;26.63;;;5.60;87.40;;;;;;5069727;28;20521;-58
2021/03/26 05:13:22;;;;;;;41.20;25.40;;;5.60;87.20;;;;;;5058460;28;20203;-58
2021/03/26 05:16:18;;;;;;;57.73;24.30;;;5.60;87.20;;;;;;5048784;28;20301;-58
2021/03/26 05:18:53;;;;;;;55.97;26.23;;;5.50;87.70;;;;;;5065555;28;20525;-58
2021/03/26 05:21:27;;;;;;;36.07;25.97;;;5.50;87.70;;;;;;5061571;28;20524;-58
2021/03/26 05:24:25;;;;;;;34.30;23.40;;;5.50;87.90;;;;;;5066789;28;20216;-58
2021/03/26 05:26:53;;;;;;;34.87;24.23;;;5.50;88.00;;;;;;5041760;28;20296;-58
2021/03/26 05:29:22;;;;;;;32.93;24.43;;;5.50;87.70;;;;;;5060461;28;20594;-58
2021/03/26 05:31:59;;;;;;;35.13;24.63;;;5.60;87.60;;;;;;5072016;28;20635;-58
2021/03/26 05:34:53;;;;;;;36.13;24.43;;;5.60;87.20;;;;;;5071078;28;20220;-58
2021/03/26 05:37:29;;;;;;;33.43;22.93;;;5.60;87.00;;;;;;5065188;28;20615;-58
2021/03/26 05:40:08;;;;;;;35.20;23.50;;;5.70;86.80;;;;;;5067389;28;20212;-58
2021/03/26 05:42:48;;;;;;;33.17;22.83;;;5.70;86.80;;;;;;5061047;28;20680;-58
2021/03/26 05:45:38;;;;;;;33.80;23.63;;;5.70;86.70;;;;;;5067931;28;20288;-58
2021/03/26 05:48:05;;;;;;;31.13;22.60;;;5.80;86.60;;;;;;5068729;28;20198;-58
2021/03/26 05:50:38;;;;;;;33.60;22.67;;;5.80;86.40;;;;;;5069225;28;20226;-58
2021/03/26 05:53:20;;;;;;;40.57;25.10;;;5.90;86.50;;;;;;5061014;28;20214;-58
2021/03/26 05:56:06;;;;;;;33.67;23.13;;;5.90;86.40;;;;;;5070724;28;20198;-58
2021/03/26 05:59:09;;;;;;;34.33;23.70;;;6.00;86.30;;;;;;5072695;28;20308;-58
2021/03/26 06:02:18;;;;;;;40.63;25.83;;;6.00;86.10;;;;;;5014595;28;20210;-58
2021/03/26 06:05:03;;;;;;;35.20;25.00;;;6.10;86.20;;;;;;5063722;28;20206;-58
2021/03/26 06:07:45;;;;;;;40.97;24.53;;;6.20;86.30;;;;;;5071360;28;20208;-58
2021/03/26 06:10:45;;;;;;;56.67;26.10;;;6.40;86.50;;;;;;5070246;28;20244;-58
2021/03/26 06:13:41;;;;;;;46.70;27.50;;;6.60;86.30;;;;;;5070553;28;20202;-57
2021/03/26 06:16:30;;;;;;;37.27;24.43;;;6.90;86.10;;;;;;5069292;28;20215;-58
2021/03/26 06:19:21;;;;;;;31.07;23.30;;;7.20;85.80;;;;;;5065789;28;20281;-58
2021/03/26 06:21:53;;;;;;;29.30;21.03;;;7.40;85.30;;;;;;5056097;28;20296;-58
2021/03/26 06:24:41;;;;;;;26.17;20.93;;;7.70;85.10;;;;;;5069031;28;20512;-58
2021/03/26 06:27:18;;;;;;;29.63;20.83;;;7.90;84.60;;;;;;5078338;28;20205;-58
2021/03/26 06:30:14;;;;;;;31.17;21.10;;;8.10;83.70;;;;;;5070354;28;20265;-58
2021/03/26 06:33:13;;;;;;;32.43;23.17;;;8.30;83.20;;;;;;5062972;28;20231;-57
2021/03/26 06:35:48;;;;;;;38.03;22.97;;;8.40;82.90;;;;;;5039106;28;20247;-58
2021/03/26 06:38:33;;;;;;;47.30;25.23;;;8.50;82.80;;;;;;5063034;28;20228;-58
2021/03/26 06:41:24;;;;;;;45.13;27.33;;;8.60;82.90;;;;;;5065525;28;20572;-58
2021/03/26 06:44:16;;;;;;;45.23;26.27;;;8.60;83.20;;;;;;5068737;28;20301;-58
2021/03/26 06:46:52;;;;;;;46.17;26.60;;;8.60;83.80;;;;;;5052275;28;20206;-58
2021/03/26 06:49:47;;;;;;;36.23;26.27;;;8.70;84.10;;;;;;5066830;28;20239;-58
2021/03/26 06:52:43;;;;;;;44.57;27.37;;;8.80;84.20;;;;;;5070169;28;20205;-56
2021/03/26 06:55:48;;;;;;;49.07;28.80;;;8.90;84.70;;;;;;5070457;28;20209;-56
2021/03/26 06:58:35;;;;;;;58.40;28.80;;;9.10;83.90;;;;;;5070917;28;20220;-56
2021/03/26 07:01:17;;;;;;;60.60;30.73;;;9.20;83.80;;;;;;5069755;28;20217;-57
2021/03/26 07:04:02;;;;;;;59.27;29.93;;;9.30;83.80;;;;;;5072148;28;20205;-57
2021/03/26 07:06:35;;;;;;;55.13;31.13;;;9.40;84.10;;;;;;5070864;28;20210;-57
2021/03/26 07:09:26;;;;;;;54.60;29.83;;;9.60;84.20;;;;;;5064544;28;20303;-57
2021/03/26 07:12:35;;;;;;;58.30;32.97;;;9.70;84.20;;;;;;5071698;28;20281;-57
2021/03/26 07:15:51;;;;;;;54.47;31.17;;;9.80;84.30;;;;;;5066593;28;20566;-57
2021/03/26 07:19:03;;;;;;;48.57;30.83;;;9.90;84.20;;;;;;5047733;28;20206;-57
2021/03/26 07:21:57;;;;;;;46.87;28.00;;;10.10;84.30;;;;;;5051117;28;20210;-57
2021/03/26 07:24:46;;;;;;;54.27;30.43;;;10.20;84.10;;;;;;5054750;28;20258;-57
2021/03/26 07:27:48;;;;;;;46.43;30.77;;;10.30;83.90;;;;;;5059863;28;20218;-57
2021/03/26 07:30:36;;;;;;;52.27;31.60;;;10.40;84.20;;;;;;5073477;28;20225;-57
2021/03/26 07:33:18;;;;;;;49.30;31.40;;;10.60;83.90;;;;;;5043655;28;20205;-57
2021/03/26 07:36:05;;;;;;;48.50;31.67;;;10.60;83.90;;;;;;5044870;28;20205;-57
2021/03/26 07:38:46;;;;;;;50.23;30.20;;;10.70;84.00;;;;;;5062843;28;20212;-57
2021/03/26 07:41:19;;;;;;;46.77;29.43;;;10.80;84.10;;;;;;5047873;28;20224;-57
2021/03/26 07:44:13;;;;;;;45.90;32.77;;;10.90;84.10;;;;;;5060312;28;20205;-57
2021/03/26 07:46:55;;;;;;;42.07;30.63;;;11.20;83.80;;;;;;5052428;28;20202;-57
2021/03/26 07:49:58;;;;;;;42.53;30.40;;;11.40;83.50;;;;;;5055936;28;20616;-57
2021/03/26 07:52:39;;;;;;;42.67;28.97;;;11.60;83.00;;;;;;5059406;28;20216;-57
2021/03/26 07:55:28;;;;;;;46.47;31.97;;;11.90;82.40;;;;;;5069771;28;20226;-58
2021/03/26 07:58:19;;;;;;;40.47;30.13;;;12.20;81.60;;;;;;5061571;28;20210;-58
2021/03/26 08:00:57;;;;;;;42.33;29.50;;;12.40;80.90;;;;;;5059882;28;20654;-58
2021/03/26 08:03:43;;;;;;;43.37;29.07;;;12.50;80.40;;;;;;5052153;28;20209;-57
2021/03/26 08:06:34;;;;;;;44.47;29.73;;;12.70;79.70;;;;;;5065293;28;20205;-57
2021/03/26 08:09:33;;;;;;;39.43;28.90;;;12.80;79.20;;;;;;5069784;28;20256;-57
2021/03/26 08:12:24;;;;;;;39.50;28.33;;;12.90;78.60;;;;;;5050718;28;20210;-58
2021/03/26 08:15:14;;;;;;;37.87;28.27;;;13.00;78.50;;;;;;5057141;28;20228;-58
2021/03/26 08:18:12;;;;;;;38.90;29.33;;;13.30;79.00;;;;;;5052243;28;20644;-57
2021/03/26 08:20:56;;;;;;;36.33;28.47;;;13.60;77.90;;;;;;5029973;28;20210;-57
2021/03/26 08:23:52;;;;;;;37.10;28.40;;;13.90;77.10;;;;;;5062002;28;20217;-57
2021/03/26 08:26:31;;;;;;;32.63;28.07;;;14.20;76.30;;;;;;5013222;28;20213;-57
2021/03/26 08:29:25;;;;;;;32.40;28.27;;;14.50;75.10;;;;;;5047840;28;20202;-58
2021/03/26 08:32:09;;;;;;;37.93;26.73;;;14.80;74.20;;;;;;5061970;28;20210;-58
2021/03/26 08:35:01;;;;;;;40.00;28.67;;;15.20;73.50;;;;;;5068390;28;20202;-58
2021/03/26 08:38:01;;;;;;;34.77;30.83;;;15.40;72.30;;;;;;5067698;28;20264;-56
2021/03/26 08:40:50;;;;;;;40.10;30.33;;;15.50;72.40;;;;;;5068891;28;20222;-58
2021/03/26 08:43:19;;;;;;;40.50;29.73;;;15.60;71.40;;;;;;5060346;28;20298;-58
2021/03/26 08:46:10;;;;;;;39.97;29.33;;;15.60;71.20;;;;;;5050662;28;20529;-58
2021/03/26 08:48:54;;;;;;;41.73;30.83;;;15.70;71.20;;;;;;5063957;28;20251;-58
2021/03/26 08:51:46;;;;;;;38.93;29.00;;;15.80;71.10;;;;;;5040237;28;20209;-57
2021/03/26 08:54:47;;;;;;;40.33;29.17;;;15.80;70.80;;;;;;5054333;28;20220;-57
2021/03/26 08:57:43;;;;;;;35.93;28.70;;;15.80;70.80;;;;;;5060366;28;20528;-58
2021/03/26 09:00:18;;;;;;;36.87;27.13;;;15.90;70.40;;;;;;5044935;28;20717;-58
2021/03/26 09:03:10;;;;;;;34.83;26.03;;;16.00;70.20;;;;;;5038623;28;20221;-58
2021/03/26 09:06:14;;;;;;;37.50;26.23;;;16.10;69.50;;;;;;5050721;28;20703;-58
2021/03/26 09:09:00;;;;;;;31.83;25.13;;;16.20;70.20;;;;;;5043691;28;20214;-57
2021/03/26 09:12:11;;;;;;;29.70;23.10;;;16.30;70.30;;;;;;5060152;28;20522;-57
2021/03/26 09:15:03;;;;;;;26.80;20.70;;;16.40;70.20;;;;;;5055991;28;20228;-57
2021/03/26 09:17:38;;;;;;;31.63;22.93;;;16.60;68.80;;;;;;5060316;28;20239;-58
2021/03/26 09:20:26;;;;;;;29.37;22.73;;;16.90;68.50;;;;;;5066588;28;20209;-56
2021/03/26 09:23:20;;;;;;;26.37;21.33;;;17.10;68.40;;;;;;5066501;28;20217;-57
2021/03/26 09:25:52;;;;;;;24.43;19.60;;;17.10;68.10;;;;;;5059644;28;20268;-56
2021/03/26 09:28:32;;;;;;;26.47;18.37;;;17.20;66.00;;;;;;5045954;28;20575;-56
2021/03/26 09:31:38;;;;;;;26.47;18.43;;;17.20;66.10;;;;;;5069289;28;20309;-60
2021/03/26 09:34:30;;;;;;;21.57;17.67;;;17.30;66.30;;;;;;5068920;28;20315;-59
2021/03/26 09:37:11;;;;;;;21.83;19.20;;;17.40;65.50;;;;;;5052234;28;20206;-57
2021/03/26 09:39:41;;;;;;;20.03;16.33;;;17.40;65.90;;;;;;5049741;28;20206;-56
2021/03/26 09:42:54;;;;;;;18.60;16.20;;;17.50;64.50;;;;;;5043287;28;20214;-59
2021/03/26 09:45:29;;;;;;;19.47;16.77;;;17.60;62.50;;;;;;4993699;28;20296;-57
2021/03/26 09:48:16;;;;;;;17.77;15.13;;;17.60;62.60;;;;;;4992932;28;20216;-58
2021/03/26 09:50:49;;;;;;;22.50;15.93;;;17.50;62.10;;;;;;5034494;28;20636;-57
2021/03/26 09:53:18;;;;;;;20.73;15.80;;;17.50;62.50;;;;;;5050326;28;20598;-57
2021/03/26 09:55:46;;;;;;;21.27;15.07;;;17.50;62.90;;;;;;5066712;28;20210;-57
2021/03/26 09:58:48;;;;;;;19.57;14.50;;;17.60;62.70;;;;;;5071574;28;20210;-56
2021/03/26 10:01:20;;;;;;;19.40;13.90;;;17.70;62.10;;;;;;5007309;28;20217;-60
2021/03/26 10:03:59;;;;;;;18.97;14.47;;;17.80;61.60;;;;;;5012747;28;20304;-55
2021/03/26 10:07:27;;;;;;;20.83;13.63;;;17.80;60.80;;;;;;5007341;28;20220;-57
2021/03/26 10:13:01;;;;;;;16.33;12.77;;;18.00;59.30;;;;;;5058315;28;20686;-60
2021/03/26 10:15:58;;;;;;;18.67;13.80;;;18.00;58.70;;;;;;5054381;28;20210;-56
2021/03/26 10:18:32;;;;;;;22.37;13.47;;;18.00;58.70;;;;;;5056463;28;20217;-58
2021/03/26 10:20:59;;;;;;;20.30;14.07;;;18.10;58.70;;;;;;5050079;28;20222;-56
2021/03/26 10:23:46;;;;;;;20.10;14.37;;;18.30;58.20;;;;;;5061643;28;20216;-57
2021/03/26 10:27:05;;;;;;;19.27;14.20;;;18.40;59.10;;;;;;5065529;28;20771;-55
2021/03/26 10:29:40;;;;;;;14.73;13.07;;;18.60;57.90;;;;;;4980578;28;20342;-61
2021/03/26 10:32:26;;;;;;;18.13;13.00;;;18.90;58.00;;;;;;4983173;28;20573;-57
2021/03/26 10:34:56;;;;;;;16.87;13.13;;;18.90;55.50;;;;;;5067956;28;20228;-57
2021/03/26 10:37:55;;;;;;;15.83;13.40;;;18.80;54.70;;;;;;5047324;28;20281;-60
2021/03/26 10:40:40;;;;;;;20.87;14.80;;;18.70;54.90;;;;;;5066114;28;20296;-58
2021/03/26 10:43:24;;;;;;;20.90;13.80;;;18.80;56.40;;;;;;5065312;28;20301;-59
2021/03/26 10:46:12;;;;;;;17.47;13.97;;;18.90;55.60;;;;;;5051735;28;20213;-59
2021/03/26 10:49:00;;;;;;;19.20;13.77;;;18.80;57.30;;;;;;5050076;28;20221;-58
2021/03/26 10:51:53;;;;;;;16.77;12.67;;;18.80;56.00;;;;;;5059540;28;20233;-57
2021/03/26 10:54:44;;;;;;;22.70;13.70;;;18.80;55.50;;;;;;5049577;28;20629;-59
2021/03/26 10:57:29;;;;;;;17.30;12.57;;;18.80;55.60;;;;;;5053286;28;20232;-58
2021/03/26 11:00:03;;;;;;;16.47;13.63;;;18.90;56.00;;;;;;5052549;28;20553;-58
2021/03/26 11:02:42;;;;;;;14.80;12.70;;;19.10;54.70;;;;;;5065794;28;20212;-58
2021/03/26 11:05:55;;;;;;;17.97;13.20;;;19.30;54.90;;;;;;5069495;28;20283;-58
2021/03/26 11:08:50;;;;;;;15.10;12.53;;;19.40;54.00;;;;;;5041007;28;20213;-58
2021/03/26 11:11:36;;;;;;;15.63;12.63;;;19.40;52.30;;;;;;5053279;28;20226;-59
2021/03/26 11:14:30;;;;;;;17.00;12.87;;;19.50;52.60;;;;;;5067122;28;20713;-57
2021/03/26 11:16:57;;;;;;;17.63;14.00;;;19.50;52.60;;;;;;5068430;28;20666;-59
2021/03/26 11:20:05;;;;;;;16.07;12.57;;;19.60;52.00;;;;;;5065780;28;20347;-59
2021/03/26 11:22:33;;;;;;;13.90;11.33;;;19.70;51.10;;;;;;5051993;28;20566;-59
2021/03/26 11:25:19;;;;;;;18.03;11.73;;;19.70;50.70;;;;;;5067117;28;20210;-57
2021/03/26 11:27:56;;;;;;;14.90;11.80;;;19.70;50.90;;;;;;5053685;28;20646;-59
2021/03/26 11:30:49;;;;;;;16.13;12.43;;;19.80;50.90;;;;;;5053676;28;20240;-58
2021/03/26 11:33:43;;;;;;;15.77;12.73;;;20.00;49.90;;;;;;5069520;28;20221;-58
2021/03/26 11:36:41;;;;;;;22.07;13.27;;;20.10;49.80;;;;;;5063780;28;20210;-59
2021/03/26 11:39:45;;;;;;;18.13;13.47;;;20.00;49.10;;;;;;5057417;28;20214;-57
2021/03/26 11:42:12;;;;;;;15.73;12.53;;;20.10;49.90;;;;;;5030899;28;20309;-59
2021/03/26 11:45:00;;;;;;;18.87;14.67;;;20.20;50.00;;;;;;5052746;28;20702;-59
2021/03/26 11:47:26;;;;;;;19.97;13.93;;;20.20;49.30;;;;;;5069482;28;20228;-58
2021/03/26 11:50:18;;;;;;;18.50;13.33;;;20.20;48.60;;;;;;5067859;28;20639;-60
2021/03/26 11:53:01;;;;;;;19.43;12.87;;;20.20;49.50;;;;;;5060267;28;20207;-57
2021/03/26 11:55:34;;;;;;;13.57;11.27;;;20.30;49.50;;;;;;5056707;28;20636;-61
2021/03/26 11:58:23;;;;;;;15.87;11.43;;;20.40;48.70;;;;;;5059359;28;20225;-58
2021/03/26 12:00:57;;;;;;;19.20;11.60;;;20.40;48.50;;;;;;5045356;28;20295;-60
2021/03/26 12:03:49;;;;;;;13.80;11.60;;;20.50;49.10;;;;;;5054346;28;20213;-61
2021/03/26 12:06:42;;;;;;;15.30;11.83;;;20.60;47.30;;;;;;5070708;28;20283;-61
2021/03/26 12:09:32;;;;;;;18.50;11.50;;;20.40;47.30;;;;;;5057619;28;20221;-59
2021/03/26 12:12:05;;;;;;;15.97;11.23;;;20.40;47.80;;;;;;5069423;28;20220;-59
2021/03/26 12:14:55;;;;;;;21.13;12.97;;;20.30;46.10;;;;;;5048340;28;20268;-58
2021/03/26 12:17:21;;;;;;;17.10;13.20;;;20.30;46.80;;;;;;5051899;28;20210;-60
2021/03/26 12:20:06;;;;;;;16.63;12.30;;;20.40;47.10;;;;;;5068474;28;20238;-59
2021/03/26 12:22:45;;;;;;;18.33;11.47;;;20.40;46.90;;;;;;5069686;28;20464;-60
2021/03/26 12:25:24;;;;;;;14.80;11.37;;;20.50;47.20;;;;;;5063028;28;20276;-58
2021/03/26 12:27:53;;;;;;;15.57;12.47;;;20.40;48.00;;;;;;5066257;28;20210;-58
2021/03/26 12:30:28;;;;;;;16.70;12.10;;;20.50;47.70;;;;;;5053970;28;20238;-61
2021/03/26 12:33:04;;;;;;;16.03;12.60;;;20.50;47.40;;;;;;5057903;28;20288;-59
2021/03/26 12:35:36;;;;;;;16.67;12.70;;;20.50;46.40;;;;;;5070684;28;20201;-59
2021/03/26 12:38:33;;;;;;;19.73;14.20;;;20.50;46.50;;;;;;5049657;28;20212;-60
2021/03/26 12:41:15;;;;;;;18.43;14.27;;;20.40;45.80;;;;;;5059817;28;20210;-60
2021/03/26 12:44:07;;;;;;;16.83;13.10;;;20.40;45.40;;;;;;5063749;28;20305;-59
2021/03/26 12:46:46;;;;;;;17.73;13.00;;;20.30;47.00;;;;;;5042199;28;20214;-59
2021/03/26 12:49:21;;;;;;;16.60;12.07;;;20.30;46.40;;;;;;5059978;28;20213;-59
2021/03/26 12:52:01;;;;;;;17.17;12.63;;;20.40;46.00;;;;;;5059003;28;20209;-60
2021/03/26 12:54:28;;;;;;;16.57;13.73;;;20.50;47.90;;;;;;5055965;28;20201;-60
2021/03/26 12:57:09;;;;;;;16.07;13.20;;;20.50;47.50;;;;;;5060207;28;20555;-60
2021/03/26 12:59:41;;;;;;;21.30;14.13;;;20.50;47.20;;;;;;5059467;28;20206;-60
2021/03/26 13:02:30;;;;;;;20.37;15.13;;;20.60;47.30;;;;;;5048791;28;20219;-59
2021/03/26 13:05:05;;;;;;;17.83;13.40;;;20.70;46.90;;;;;;5068251;28;20530;-60
2021/03/26 13:07:44;;;;;;;18.50;13.20;;;20.70;46.90;;;;;;5055361;28;20226;-60
2021/03/26 13:10:33;;;;;;;18.60;13.43;;;20.60;46.40;;;;;;5054324;28;20252;-59
2021/03/26 13:13:11;;;;;;;19.33;14.13;;;20.60;46.80;;;;;;5047231;28;20305;-60
2021/03/26 13:15:43;;;;;;;17.70;13.23;;;20.60;47.20;;;;;;5046153;28;20241;-60
2021/03/26 13:18:14;;;;;;;15.87;12.63;;;20.50;48.10;;;;;;5039380;28;20206;-60
2021/03/26 13:21:27;;;;;;;15.37;12.23;;;20.40;47.00;;;;;;5041110;28;20289;-60
2021/03/26 13:24:14;;;;;;;16.60;12.13;;;20.30;47.20;;;;;;5027490;28;20630;-60
2021/03/26 13:26:46;;;;;;;13.90;10.37;;;20.30;47.80;;;;;;5044544;28;20352;-60
2021/03/26 13:29:23;;;;;;;12.77;11.10;;;20.20;48.10;;;;;;5045588;28;20210;-60
2021/03/26 13:31:53;;;;;;;12.60;10.93;;;20.30;47.50;;;;;;5049523;28;20210;-60
2021/03/26 13:34:28;;;;;;;15.10;11.27;;;20.40;48.60;;;;;;5053263;28;20211;-60
2021/03/26 13:37:18;;;;;;;19.63;11.77;;;20.40;48.10;;;;;;5044952;28;20288;-59
2021/03/26 13:39:48;;;;;;;18.47;11.07;;;20.50;47.80;;;;;;5052060;28;20624;-60
2021/03/26 13:42:21;;;;;;;13.53;11.50;;;20.50;47.30;;;;;;5052163;28;20225;-60
2021/03/26 13:44:51;;;;;;;14.07;10.77;;;20.50;47.70;;;;;;5044929;28;20256;-60
2021/03/26 13:47:39;;;;;;;17.80;10.63;;;20.40;47.40;;;;;;5044869;28;20215;-61
2021/03/26 13:50:15;;;;;;;16.20;11.03;;;20.40;47.60;;;;;;5051516;28;20237;-58
2021/03/26 13:52:54;;;;;;;15.93;12.10;;;20.40;46.40;;;;;;5049629;28;20836;-59